sensor_id;sensor_type;location;lat;lon;timestamp;P1;durP1;ratioP1;P2;durP2;ratioP2
39324;SDS011;25037;49.488;9.900;2024-01-30T00:02:01;19.88;;;7.90;;
39324;SDS011;25037;49.488;9.900;2024-01-30T00:04:28;20.67;;;9.07;;
39324;SDS011;25037;49.488;9.900;2024-01-30T00:06:56;19.67;;;9.00;;
39324;SDS011;25037;49.488;9.900;2024-01-30T00:09:23;16.95;;;8.20;;
39324;SDS011;25037;49.488;9.900;2024-01-30T00:16:45;14.55;;;7.07;;
39324;SDS011;25037;49.488;9.900;2024-01-30T00:19:12;16.95;;;7.85;;
39324;SDS011;25037;49.488;9.900;2024-01-30T00:24:07;17.90;;;7.55;;
39324;SDS011;25037;49.488;9.900;2024-01-30T00:26:34;14.43;;;7.60;;
39324;SDS011;25037;49.488;9.900;2024-01-30T00:31:29;17.35;;;8.45;;
39324;SDS011;25037;49.488;9.900;2024-01-30T00:33:56;12.90;;;7.00;;
39324;SDS011;25037;49.488;9.900;2024-01-30T00:36:24;16.75;;;7.65;;
39324;SDS011;25037;49.488;9.900;2024-01-30T00:38:51;17.10;;;8.18;;
39324;SDS011;25037;49.488;9.900;2024-01-30T00:41:19;13.52;;;6.75;;
39324;SDS011;25037;49.488;9.900;2024-01-30T00:43:46;15.07;;;7.55;;
39324;SDS011;25037;49.488;9.900;2024-01-30T00:48:43;17.05;;;8.13;;
39324;SDS011;25037;49.488;9.900;2024-01-30T00:53:37;15.75;;;7.03;;
39324;SDS011;25037;49.488;9.900;2024-01-30T00:56:04;16.35;;;8.35;;
39324;SDS011;25037;49.488;9.900;2024-01-30T00:58:32;15.55;;;7.22;;
39324;SDS011;25037;49.488;9.900;2024-01-30T01:00:59;12.45;;;7.57;;
39324;SDS011;25037;49.488;9.900;2024-01-30T01:03:26;15.13;;;7.43;;
39324;SDS011;25037;49.488;9.900;2024-01-30T01:05:53;16.85;;;6.50;;
39324;SDS011;25037;49.488;9.900;2024-01-30T01:08:21;15.80;;;7.13;;
39324;SDS011;25037;49.488;9.900;2024-01-30T01:10:48;17.15;;;8.35;;
39324;SDS011;25037;49.488;9.900;2024-01-30T01:13:15;14.18;;;7.07;;
39324;SDS011;25037;49.488;9.900;2024-01-30T01:15:42;12.13;;;6.15;;
39324;SDS011;25037;49.488;9.900;2024-01-30T01:18:10;14.48;;;7.90;;
39324;SDS011;25037;49.488;9.900;2024-01-30T01:23:04;23.88;;;8.13;;
39324;SDS011;25037;49.488;9.900;2024-01-30T01:25:31;13.73;;;6.72;;
39324;SDS011;25037;49.488;9.900;2024-01-30T01:27:59;13.00;;;6.85;;
39324;SDS011;25037;49.488;9.900;2024-01-30T01:30:28;15.57;;;7.55;;
39324;SDS011;25037;49.488;9.900;2024-01-30T01:32:55;15.30;;;7.03;;
39324;SDS011;25037;49.488;9.900;2024-01-30T01:35:24;13.25;;;6.45;;
39324;SDS011;25037;49.488;9.900;2024-01-30T01:40:25;14.90;;;6.80;;
39324;SDS011;25037;49.488;9.900;2024-01-30T01:42:53;14.27;;;7.03;;
39324;SDS011;25037;49.488;9.900;2024-01-30T01:45:22;14.25;;;6.63;;
39324;SDS011;25037;49.488;9.900;2024-01-30T01:50:20;16.15;;;5.93;;
39324;SDS011;25037;49.488;9.900;2024-01-30T01:52:49;14.05;;;6.57;;
39324;SDS011;25037;49.488;9.900;2024-01-30T01:55:17;14.68;;;6.75;;
39324;SDS011;25037;49.488;9.900;2024-01-30T01:57:51;12.77;;;6.38;;
39324;SDS011;25037;49.488;9.900;2024-01-30T02:00:20;13.07;;;7.07;;
39324;SDS011;25037;49.488;9.900;2024-01-30T02:02:49;15.07;;;6.53;;
39324;SDS011;25037;49.488;9.900;2024-01-30T02:05:16;13.77;;;6.55;;
39324;SDS011;25037;49.488;9.900;2024-01-30T02:07:44;11.57;;;6.63;;
39324;SDS011;25037;49.488;9.900;2024-01-30T02:10:11;13.30;;;6.97;;
39324;SDS011;25037;49.488;9.900;2024-01-30T02:12:39;12.52;;;6.25;;
39324;SDS011;25037;49.488;9.900;2024-01-30T02:15:07;16.70;;;7.40;;
39324;SDS011;25037;49.488;9.900;2024-01-30T02:17:34;12.98;;;6.30;;
39324;SDS011;25037;49.488;9.900;2024-01-30T02:20:01;14.20;;;7.00;;
39324;SDS011;25037;49.488;9.900;2024-01-30T02:22:30;13.57;;;6.25;;
39324;SDS011;25037;49.488;9.900;2024-01-30T02:25:00;13.60;;;6.45;;
39324;SDS011;25037;49.488;9.900;2024-01-30T02:27:27;13.07;;;6.43;;
39324;SDS011;25037;49.488;9.900;2024-01-30T02:29:54;12.98;;;6.13;;
39324;SDS011;25037;49.488;9.900;2024-01-30T02:32:21;12.00;;;5.85;;
39324;SDS011;25037;49.488;9.900;2024-01-30T02:34:48;14.02;;;6.20;;
39324;SDS011;25037;49.488;9.900;2024-01-30T02:37:16;10.95;;;5.53;;
39324;SDS011;25037;49.488;9.900;2024-01-30T02:39:44;14.07;;;6.07;;
39324;SDS011;25037;49.488;9.900;2024-01-30T02:44:39;13.95;;;6.80;;
39324;SDS011;25037;49.488;9.900;2024-01-30T02:47:06;14.63;;;5.70;;
39324;SDS011;25037;49.488;9.900;2024-01-30T02:52:00;12.00;;;5.88;;
39324;SDS011;25037;49.488;9.900;2024-01-30T02:54:28;16.20;;;6.43;;
39324;SDS011;25037;49.488;9.900;2024-01-30T02:56:57;14.63;;;6.07;;
39324;SDS011;25037;49.488;9.900;2024-01-30T02:59:24;13.77;;;6.45;;
39324;SDS011;25037;49.488;9.900;2024-01-30T03:01:51;12.57;;;6.15;;
39324;SDS011;25037;49.488;9.900;2024-01-30T03:04:18;12.85;;;6.72;;
39324;SDS011;25037;49.488;9.900;2024-01-30T03:06:46;13.20;;;6.43;;
39324;SDS011;25037;49.488;9.900;2024-01-30T03:09:16;13.35;;;7.13;;
39324;SDS011;25037;49.488;9.900;2024-01-30T03:11:44;15.18;;;6.75;;
39324;SDS011;25037;49.488;9.900;2024-01-30T03:14:11;14.93;;;7.07;;
39324;SDS011;25037;49.488;9.900;2024-01-30T03:16:39;13.40;;;7.07;;
39324;SDS011;25037;49.488;9.900;2024-01-30T03:19:07;12.07;;;6.57;;
39324;SDS011;25037;49.488;9.900;2024-01-30T03:21:36;14.43;;;7.07;;
39324;SDS011;25037;49.488;9.900;2024-01-30T03:24:03;15.40;;;7.10;;
39324;SDS011;25037;49.488;9.900;2024-01-30T03:26:31;13.60;;;6.47;;
39324;SDS011;25037;49.488;9.900;2024-01-30T03:28:58;15.23;;;6.80;;
39324;SDS011;25037;49.488;9.900;2024-01-30T03:33:52;15.52;;;7.15;;
39324;SDS011;25037;49.488;9.900;2024-01-30T03:36:20;11.27;;;6.30;;
39324;SDS011;25037;49.488;9.900;2024-01-30T03:38:47;15.05;;;7.75;;
39324;SDS011;25037;49.488;9.900;2024-01-30T03:43:42;13.70;;;6.68;;
39324;SDS011;25037;49.488;9.900;2024-01-30T03:48:38;14.13;;;7.10;;
39324;SDS011;25037;49.488;9.900;2024-01-30T03:51:05;15.68;;;7.32;;
39324;SDS011;25037;49.488;9.900;2024-01-30T03:53:33;12.15;;;5.97;;
39324;SDS011;25037;49.488;9.900;2024-01-30T03:58:27;14.75;;;7.32;;
39324;SDS011;25037;49.488;9.900;2024-01-30T04:00:54;13.45;;;6.80;;
39324;SDS011;25037;49.488;9.900;2024-01-30T04:03:21;13.57;;;6.85;;
39324;SDS011;25037;49.488;9.900;2024-01-30T04:05:49;15.15;;;7.40;;
39324;SDS011;25037;49.488;9.900;2024-01-30T04:10:43;13.90;;;6.95;;
39324;SDS011;25037;49.488;9.900;2024-01-30T04:13:11;16.92;;;7.75;;
39324;SDS011;25037;49.488;9.900;2024-01-30T04:15:38;16.52;;;7.70;;
39324;SDS011;25037;49.488;9.900;2024-01-30T04:18:06;14.35;;;7.45;;
39324;SDS011;25037;49.488;9.900;2024-01-30T04:20:33;14.45;;;7.28;;
39324;SDS011;25037;49.488;9.900;2024-01-30T04:23:00;14.00;;;6.97;;
39324;SDS011;25037;49.488;9.900;2024-01-30T04:25:27;12.98;;;6.68;;
39324;SDS011;25037;49.488;9.900;2024-01-30T04:27:54;16.63;;;8.05;;
39324;SDS011;25037;49.488;9.900;2024-01-30T04:35:15;13.65;;;6.88;;
39324;SDS011;25037;49.488;9.900;2024-01-30T04:37:43;13.70;;;6.40;;
39324;SDS011;25037;49.488;9.900;2024-01-30T04:40:10;15.80;;;7.18;;
39324;SDS011;25037;49.488;9.900;2024-01-30T04:42:38;15.23;;;6.47;;
39324;SDS011;25037;49.488;9.900;2024-01-30T04:45:05;14.73;;;7.53;;
39324;SDS011;25037;49.488;9.900;2024-01-30T04:47:32;14.63;;;7.57;;
39324;SDS011;25037;49.488;9.900;2024-01-30T04:50:00;13.65;;;7.53;;
39324;SDS011;25037;49.488;9.900;2024-01-30T04:52:29;13.63;;;6.53;;
39324;SDS011;25037;49.488;9.900;2024-01-30T04:54:56;12.15;;;6.82;;
39324;SDS011;25037;49.488;9.900;2024-01-30T04:57:23;14.25;;;7.35;;
39324;SDS011;25037;49.488;9.900;2024-01-30T05:02:17;12.80;;;6.82;;
39324;SDS011;25037;49.488;9.900;2024-01-30T05:07:12;13.73;;;6.30;;
39324;SDS011;25037;49.488;9.900;2024-01-30T05:09:40;12.98;;;6.45;;
39324;SDS011;25037;49.488;9.900;2024-01-30T05:12:07;12.18;;;7.10;;
39324;SDS011;25037;49.488;9.900;2024-01-30T05:14:34;12.63;;;6.72;;
39324;SDS011;25037;49.488;9.900;2024-01-30T05:17:01;13.98;;;7.03;;
39324;SDS011;25037;49.488;9.900;2024-01-30T05:19:29;12.27;;;6.78;;
39324;SDS011;25037;49.488;9.900;2024-01-30T05:21:57;15.00;;;6.93;;
39324;SDS011;25037;49.488;9.900;2024-01-30T05:24:24;13.10;;;6.20;;
39324;SDS011;25037;49.488;9.900;2024-01-30T05:26:53;12.80;;;5.85;;
39324;SDS011;25037;49.488;9.900;2024-01-30T05:31:48;14.45;;;5.93;;
39324;SDS011;25037;49.488;9.900;2024-01-30T05:34:16;13.93;;;6.97;;
39324;SDS011;25037;49.488;9.900;2024-01-30T05:36:43;13.88;;;6.80;;
39324;SDS011;25037;49.488;9.900;2024-01-30T05:41:37;13.38;;;6.15;;
39324;SDS011;25037;49.488;9.900;2024-01-30T05:46:33;11.52;;;5.60;;
39324;SDS011;25037;49.488;9.900;2024-01-30T05:49:00;12.88;;;6.00;;
39324;SDS011;25037;49.488;9.900;2024-01-30T05:51:27;17.63;;;6.85;;
39324;SDS011;25037;49.488;9.900;2024-01-30T05:56:22;13.48;;;5.75;;
39324;SDS011;25037;49.488;9.900;2024-01-30T06:01:16;13.63;;;6.80;;
39324;SDS011;25037;49.488;9.900;2024-01-30T06:03:44;10.63;;;5.72;;
39324;SDS011;25037;49.488;9.900;2024-01-30T06:11:05;12.30;;;5.93;;
39324;SDS011;25037;49.488;9.900;2024-01-30T06:13:36;15.20;;;6.93;;
39324;SDS011;25037;49.488;9.900;2024-01-30T06:18:37;10.95;;;5.80;;
39324;SDS011;25037;49.488;9.900;2024-01-30T06:21:05;14.70;;;6.68;;
39324;SDS011;25037;49.488;9.900;2024-01-30T06:23:35;9.80;;;5.68;;
39324;SDS011;25037;49.488;9.900;2024-01-30T06:26:02;10.88;;;5.55;;
39324;SDS011;25037;49.488;9.900;2024-01-30T06:28:29;20.42;;;7.63;;
39324;SDS011;25037;49.488;9.900;2024-01-30T06:35:51;12.07;;;6.22;;
39324;SDS011;25037;49.488;9.900;2024-01-30T06:40:46;10.98;;;5.88;;
39324;SDS011;25037;49.488;9.900;2024-01-30T06:43:13;11.90;;;6.35;;
39324;SDS011;25037;49.488;9.900;2024-01-30T06:45:41;13.57;;;6.78;;
39324;SDS011;25037;49.488;9.900;2024-01-30T06:48:09;14.43;;;6.72;;
39324;SDS011;25037;49.488;9.900;2024-01-30T06:53:04;14.35;;;7.30;;
39324;SDS011;25037;49.488;9.900;2024-01-30T06:55:31;15.88;;;7.40;;
39324;SDS011;25037;49.488;9.900;2024-01-30T07:00:26;13.38;;;6.78;;
39324;SDS011;25037;49.488;9.900;2024-01-30T07:02:53;13.68;;;6.55;;
39324;SDS011;25037;49.488;9.900;2024-01-30T07:05:20;13.70;;;7.25;;
39324;SDS011;25037;49.488;9.900;2024-01-30T07:07:48;15.07;;;7.43;;
39324;SDS011;25037;49.488;9.900;2024-01-30T07:10:16;15.13;;;7.28;;
39324;SDS011;25037;49.488;9.900;2024-01-30T07:12:43;14.65;;;7.07;;
39324;SDS011;25037;49.488;9.900;2024-01-30T07:15:11;16.80;;;7.82;;
39324;SDS011;25037;49.488;9.900;2024-01-30T07:17:41;14.95;;;7.25;;
39324;SDS011;25037;49.488;9.900;2024-01-30T07:22:40;13.55;;;7.95;;
39324;SDS011;25037;49.488;9.900;2024-01-30T07:27:35;17.30;;;7.55;;
39324;SDS011;25037;49.488;9.900;2024-01-30T07:30:03;17.42;;;8.65;;
39324;SDS011;25037;49.488;9.900;2024-01-30T07:32:31;17.63;;;8.18;;
39324;SDS011;25037;49.488;9.900;2024-01-30T07:34:59;18.65;;;9.30;;
39324;SDS011;25037;49.488;9.900;2024-01-30T07:37:34;17.45;;;8.13;;
39324;SDS011;25037;49.488;9.900;2024-01-30T07:40:02;16.40;;;8.55;;
39324;SDS011;25037;49.488;9.900;2024-01-30T07:42:30;16.38;;;7.30;;
39324;SDS011;25037;49.488;9.900;2024-01-30T07:47:25;16.73;;;8.18;;
39324;SDS011;25037;49.488;9.900;2024-01-30T07:49:53;16.50;;;8.35;;
39324;SDS011;25037;49.488;9.900;2024-01-30T07:52:21;18.10;;;8.48;;
39324;SDS011;25037;49.488;9.900;2024-01-30T07:54:48;16.17;;;7.65;;
39324;SDS011;25037;49.488;9.900;2024-01-30T07:57:16;17.45;;;8.93;;
39324;SDS011;25037;49.488;9.900;2024-01-30T07:59:44;16.48;;;9.02;;
39324;SDS011;25037;49.488;9.900;2024-01-30T08:02:12;17.42;;;9.25;;
39324;SDS011;25037;49.488;9.900;2024-01-30T08:04:40;23.77;;;10.77;;
39324;SDS011;25037;49.488;9.900;2024-01-30T08:07:07;27.55;;;12.63;;
39324;SDS011;25037;49.488;9.900;2024-01-30T08:09:35;28.63;;;13.48;;
39324;SDS011;25037;49.488;9.900;2024-01-30T08:14:29;27.88;;;13.98;;
39324;SDS011;25037;49.488;9.900;2024-01-30T08:16:57;33.30;;;16.00;;
39324;SDS011;25037;49.488;9.900;2024-01-30T08:19:24;31.80;;;15.35;;
39324;SDS011;25037;49.488;9.900;2024-01-30T08:21:51;34.92;;;15.35;;
39324;SDS011;25037;49.488;9.900;2024-01-30T08:24:18;35.15;;;17.80;;
39324;SDS011;25037;49.488;9.900;2024-01-30T08:29:13;46.33;;;21.98;;
39324;SDS011;25037;49.488;9.900;2024-01-30T08:31:40;41.20;;;20.60;;
39324;SDS011;25037;49.488;9.900;2024-01-30T08:34:07;33.35;;;16.70;;
39324;SDS011;25037;49.488;9.900;2024-01-30T08:36:35;30.45;;;14.80;;
39324;SDS011;25037;49.488;9.900;2024-01-30T08:39:03;31.45;;;14.88;;
39324;SDS011;25037;49.488;9.900;2024-01-30T08:41:32;31.05;;;14.65;;
39324;SDS011;25037;49.488;9.900;2024-01-30T08:43:59;33.90;;;17.00;;
39324;SDS011;25037;49.488;9.900;2024-01-30T08:48:54;24.73;;;11.75;;
39324;SDS011;25037;49.488;9.900;2024-01-30T08:53:48;22.30;;;9.98;;
39324;SDS011;25037;49.488;9.900;2024-01-30T08:56:16;23.35;;;11.38;;
39324;SDS011;25037;49.488;9.900;2024-01-30T08:58:48;21.92;;;12.10;;
39324;SDS011;25037;49.488;9.900;2024-01-30T09:04:38;20.88;;;10.38;;
39324;SDS011;25037;49.488;9.900;2024-01-30T09:07:06;20.65;;;11.00;;
39324;SDS011;25037;49.488;9.900;2024-01-30T09:09:39;28.10;;;12.68;;
39324;SDS011;25037;49.488;9.900;2024-01-30T09:12:10;31.05;;;12.63;;
39324;SDS011;25037;49.488;9.900;2024-01-30T09:14:39;27.20;;;14.68;;
39324;SDS011;25037;49.488;9.900;2024-01-30T09:17:08;29.20;;;13.45;;
39324;SDS011;25037;49.488;9.900;2024-01-30T09:19:35;25.25;;;13.02;;
39324;SDS011;25037;49.488;9.900;2024-01-30T09:22:14;22.08;;;12.32;;
39324;SDS011;25037;49.488;9.900;2024-01-30T09:24:47;24.30;;;13.18;;
39324;SDS011;25037;49.488;9.900;2024-01-30T09:27:15;27.42;;;12.55;;
39324;SDS011;25037;49.488;9.900;2024-01-30T09:29:42;25.60;;;11.98;;
39324;SDS011;25037;49.488;9.900;2024-01-30T09:32:12;20.98;;;11.00;;
39324;SDS011;25037;49.488;9.900;2024-01-30T09:34:40;18.58;;;10.57;;
39324;SDS011;25037;49.488;9.900;2024-01-30T09:37:10;20.58;;;11.70;;
39324;SDS011;25037;49.488;9.900;2024-01-30T09:39:37;21.95;;;12.05;;
39324;SDS011;25037;49.488;9.900;2024-01-30T09:42:05;20.60;;;10.90;;
39324;SDS011;25037;49.488;9.900;2024-01-30T09:47:27;19.23;;;10.73;;
39324;SDS011;25037;49.488;9.900;2024-01-30T09:49:58;22.25;;;11.70;;
39324;SDS011;25037;49.488;9.900;2024-01-30T09:52:26;18.48;;;9.80;;
39324;SDS011;25037;49.488;9.900;2024-01-30T09:54:54;21.38;;;11.15;;
39324;SDS011;25037;49.488;9.900;2024-01-30T09:57:21;19.20;;;9.98;;
39324;SDS011;25037;49.488;9.900;2024-01-30T09:59:48;19.95;;;10.75;;
39324;SDS011;25037;49.488;9.900;2024-01-30T10:02:17;16.85;;;10.07;;
39324;SDS011;25037;49.488;9.900;2024-01-30T10:04:49;19.98;;;9.75;;
39324;SDS011;25037;49.488;9.900;2024-01-30T10:07:19;20.65;;;10.02;;
39324;SDS011;25037;49.488;9.900;2024-01-30T10:09:47;19.52;;;11.00;;
39324;SDS011;25037;49.488;9.900;2024-01-30T10:12:15;17.27;;;9.32;;
39324;SDS011;25037;49.488;9.900;2024-01-30T10:14:43;18.50;;;10.38;;
39324;SDS011;25037;49.488;9.900;2024-01-30T10:17:11;22.55;;;12.95;;
39324;SDS011;25037;49.488;9.900;2024-01-30T10:19:53;25.15;;;13.98;;
39324;SDS011;25037;49.488;9.900;2024-01-30T10:24:48;26.20;;;14.13;;
39324;SDS011;25037;49.488;9.900;2024-01-30T10:27:15;22.25;;;13.70;;
39324;SDS011;25037;49.488;9.900;2024-01-30T10:29:42;22.73;;;12.50;;
39324;SDS011;25037;49.488;9.900;2024-01-30T10:32:10;20.98;;;12.88;;
39324;SDS011;25037;49.488;9.900;2024-01-30T10:34:36;22.30;;;12.70;;
39324;SDS011;25037;49.488;9.900;2024-01-30T10:37:08;19.20;;;11.43;;
39324;SDS011;25037;49.488;9.900;2024-01-30T10:39:42;20.17;;;11.85;;
39324;SDS011;25037;49.488;9.900;2024-01-30T10:42:12;23.17;;;12.20;;
39324;SDS011;25037;49.488;9.900;2024-01-30T10:47:14;21.30;;;12.50;;
39324;SDS011;25037;49.488;9.900;2024-01-30T10:49:51;23.42;;;13.65;;
39324;SDS011;25037;49.488;9.900;2024-01-30T10:52:21;23.77;;;12.30;;
39324;SDS011;25037;49.488;9.900;2024-01-30T10:54:53;22.10;;;12.30;;
39324;SDS011;25037;49.488;9.900;2024-01-30T10:57:28;24.15;;;13.40;;
39324;SDS011;25037;49.488;9.900;2024-01-30T10:59:56;18.73;;;11.65;;
39324;SDS011;25037;49.488;9.900;2024-01-30T11:02:25;22.23;;;12.75;;
39324;SDS011;25037;49.488;9.900;2024-01-30T11:04:57;21.08;;;12.00;;
39324;SDS011;25037;49.488;9.900;2024-01-30T11:07:34;22.48;;;11.95;;
39324;SDS011;25037;49.488;9.900;2024-01-30T11:10:04;20.48;;;12.32;;
39324;SDS011;25037;49.488;9.900;2024-01-30T11:12:38;21.50;;;12.13;;
39324;SDS011;25037;49.488;9.900;2024-01-30T11:15:13;20.48;;;12.15;;
39324;SDS011;25037;49.488;9.900;2024-01-30T11:17:45;21.27;;;12.18;;
39324;SDS011;25037;49.488;9.900;2024-01-30T11:20:27;19.88;;;12.15;;
39324;SDS011;25037;49.488;9.900;2024-01-30T11:23:04;19.77;;;11.30;;
39324;SDS011;25037;49.488;9.900;2024-01-30T11:25:33;21.45;;;12.07;;
39324;SDS011;25037;49.488;9.900;2024-01-30T11:28:02;21.85;;;11.63;;
39324;SDS011;25037;49.488;9.900;2024-01-30T11:30:30;19.20;;;11.20;;
39324;SDS011;25037;49.488;9.900;2024-01-30T11:35:38;21.52;;;12.18;;
39324;SDS011;25037;49.488;9.900;2024-01-30T11:38:11;18.90;;;11.85;;
39324;SDS011;25037;49.488;9.900;2024-01-30T11:40:41;19.25;;;11.93;;
39324;SDS011;25037;49.488;9.900;2024-01-30T11:43:13;18.95;;;10.70;;
39324;SDS011;25037;49.488;9.900;2024-01-30T11:45:42;19.77;;;11.70;;
39324;SDS011;25037;49.488;9.900;2024-01-30T11:48:12;19.25;;;11.82;;
39324;SDS011;25037;49.488;9.900;2024-01-30T11:50:42;20.08;;;12.13;;
39324;SDS011;25037;49.488;9.900;2024-01-30T11:53:12;17.45;;;10.77;;
39324;SDS011;25037;49.488;9.900;2024-01-30T11:55:40;18.10;;;11.27;;
39324;SDS011;25037;49.488;9.900;2024-01-30T11:58:07;19.27;;;12.05;;
39324;SDS011;25037;49.488;9.900;2024-01-30T12:01:12;19.48;;;10.75;;
39324;SDS011;25037;49.488;9.900;2024-01-30T12:03:33;19.58;;;12.10;;
39324;SDS011;25037;49.488;9.900;2024-01-30T12:08:29;16.95;;;10.55;;
39324;SDS011;25037;49.488;9.900;2024-01-30T12:10:57;20.33;;;10.77;;
39324;SDS011;25037;49.488;9.900;2024-01-30T12:13:33;23.23;;;13.15;;
39324;SDS011;25037;49.488;9.900;2024-01-30T12:16:01;22.65;;;12.15;;
39324;SDS011;25037;49.488;9.900;2024-01-30T12:18:28;19.33;;;11.82;;
39324;SDS011;25037;49.488;9.900;2024-01-30T12:20:59;19.88;;;11.38;;
39324;SDS011;25037;49.488;9.900;2024-01-30T12:23:27;20.70;;;11.90;;
39324;SDS011;25037;49.488;9.900;2024-01-30T12:25:56;21.67;;;11.90;;
39324;SDS011;25037;49.488;9.900;2024-01-30T12:28:30;20.30;;;10.52;;
39324;SDS011;25037;49.488;9.900;2024-01-30T12:31:00;18.60;;;10.30;;
39324;SDS011;25037;49.488;9.900;2024-01-30T12:33:29;18.38;;;10.85;;
39324;SDS011;25037;49.488;9.900;2024-01-30T12:36:01;19.80;;;10.75;;
39324;SDS011;25037;49.488;9.900;2024-01-30T12:38:30;17.00;;;10.27;;
39324;SDS011;25037;49.488;9.900;2024-01-30T12:40:57;23.08;;;10.90;;
39324;SDS011;25037;49.488;9.900;2024-01-30T12:43:31;19.98;;;10.73;;
39324;SDS011;25037;49.488;9.900;2024-01-30T12:46:04;18.25;;;10.75;;
39324;SDS011;25037;49.488;9.900;2024-01-30T12:48:32;17.23;;;11.73;;
39324;SDS011;25037;49.488;9.900;2024-01-30T12:51:00;21.17;;;11.82;;
39324;SDS011;25037;49.488;9.900;2024-01-30T12:53:27;18.52;;;11.40;;
39324;SDS011;25037;49.488;9.900;2024-01-30T12:56:03;19.90;;;11.57;;
39324;SDS011;25037;49.488;9.900;2024-01-30T12:58:30;14.35;;;9.02;;
39324;SDS011;25037;49.488;9.900;2024-01-30T13:01:00;16.23;;;9.07;;
39324;SDS011;25037;49.488;9.900;2024-01-30T13:03:31;13.57;;;6.63;;
39324;SDS011;25037;49.488;9.900;2024-01-30T13:06:00;9.43;;;5.75;;
39324;SDS011;25037;49.488;9.900;2024-01-30T13:08:30;11.85;;;4.78;;
39324;SDS011;25037;49.488;9.900;2024-01-30T13:10:58;7.38;;;3.75;;
39324;SDS011;25037;49.488;9.900;2024-01-30T13:15:52;6.63;;;2.50;;
39324;SDS011;25037;49.488;9.900;2024-01-30T13:18:22;5.82;;;3.03;;
39324;SDS011;25037;49.488;9.900;2024-01-30T13:21:13;6.00;;;3.03;;
39324;SDS011;25037;49.488;9.900;2024-01-30T13:23:46;5.60;;;2.05;;
39324;SDS011;25037;49.488;9.900;2024-01-30T13:26:13;5.20;;;2.58;;
39324;SDS011;25037;49.488;9.900;2024-01-30T13:28:41;6.75;;;3.03;;
39324;SDS011;25037;49.488;9.900;2024-01-30T13:33:35;6.50;;;2.63;;
39324;SDS011;25037;49.488;9.900;2024-01-30T13:36:02;4.97;;;2.85;;
39324;SDS011;25037;49.488;9.900;2024-01-30T13:38:29;6.07;;;2.63;;
39324;SDS011;25037;49.488;9.900;2024-01-30T13:40:57;5.35;;;2.58;;
39324;SDS011;25037;49.488;9.900;2024-01-30T13:43:24;7.70;;;2.38;;
39324;SDS011;25037;49.488;9.900;2024-01-30T13:45:52;5.35;;;2.47;;
39324;SDS011;25037;49.488;9.900;2024-01-30T13:48:19;5.55;;;2.40;;
39324;SDS011;25037;49.488;9.900;2024-01-30T13:50:47;5.30;;;2.30;;
39324;SDS011;25037;49.488;9.900;2024-01-30T13:53:16;5.80;;;2.72;;
39324;SDS011;25037;49.488;9.900;2024-01-30T13:55:43;4.72;;;2.17;;
39324;SDS011;25037;49.488;9.900;2024-01-30T13:58:11;5.60;;;2.20;;
39324;SDS011;25037;49.488;9.900;2024-01-30T14:00:38;5.07;;;2.10;;
39324;SDS011;25037;49.488;9.900;2024-01-30T14:03:06;5.35;;;1.98;;
39324;SDS011;25037;49.488;9.900;2024-01-30T14:05:33;6.07;;;2.10;;
39324;SDS011;25037;49.488;9.900;2024-01-30T14:08:02;4.90;;;2.47;;
39324;SDS011;25037;49.488;9.900;2024-01-30T14:10:29;5.85;;;2.58;;
39324;SDS011;25037;49.488;9.900;2024-01-30T14:12:57;5.18;;;2.20;;
39324;SDS011;25037;49.488;9.900;2024-01-30T14:15:24;6.00;;;2.63;;
39324;SDS011;25037;49.488;9.900;2024-01-30T14:17:55;5.40;;;2.17;;
39324;SDS011;25037;49.488;9.900;2024-01-30T14:20:26;6.13;;;2.55;;
39324;SDS011;25037;49.488;9.900;2024-01-30T14:22:53;4.63;;;2.30;;
39324;SDS011;25037;49.488;9.900;2024-01-30T14:25:23;6.30;;;2.35;;
39324;SDS011;25037;49.488;9.900;2024-01-30T14:27:50;4.85;;;2.42;;
39324;SDS011;25037;49.488;9.900;2024-01-30T14:30:18;4.72;;;2.22;;
39324;SDS011;25037;49.488;9.900;2024-01-30T14:32:46;4.35;;;2.08;;
39324;SDS011;25037;49.488;9.900;2024-01-30T14:35:14;5.28;;;2.20;;
39324;SDS011;25037;49.488;9.900;2024-01-30T14:37:42;5.70;;;2.58;;
39324;SDS011;25037;49.488;9.900;2024-01-30T14:40:09;8.23;;;2.30;;
39324;SDS011;25037;49.488;9.900;2024-01-30T14:42:37;6.30;;;2.58;;
39324;SDS011;25037;49.488;9.900;2024-01-30T14:45:05;6.70;;;2.30;;
39324;SDS011;25037;49.488;9.900;2024-01-30T14:47:33;4.60;;;2.47;;
39324;SDS011;25037;49.488;9.900;2024-01-30T14:50:03;6.07;;;2.42;;
39324;SDS011;25037;49.488;9.900;2024-01-30T14:52:35;6.15;;;2.45;;
39324;SDS011;25037;49.488;9.900;2024-01-30T14:55:04;4.00;;;2.28;;
39324;SDS011;25037;49.488;9.900;2024-01-30T14:57:32;6.97;;;2.30;;
39324;SDS011;25037;49.488;9.900;2024-01-30T15:00:01;7.20;;;2.83;;
39324;SDS011;25037;49.488;9.900;2024-01-30T15:02:29;5.88;;;2.80;;
39324;SDS011;25037;49.488;9.900;2024-01-30T15:04:57;4.90;;;2.50;;
39324;SDS011;25037;49.488;9.900;2024-01-30T15:07:24;5.13;;;2.72;;
39324;SDS011;25037;49.488;9.900;2024-01-30T15:10:05;7.45;;;2.70;;
39324;SDS011;25037;49.488;9.900;2024-01-30T15:12:33;5.38;;;2.35;;
39324;SDS011;25037;49.488;9.900;2024-01-30T15:15:00;5.15;;;2.50;;
39324;SDS011;25037;49.488;9.900;2024-01-30T15:17:27;7.78;;;2.95;;
39324;SDS011;25037;49.488;9.900;2024-01-30T15:19:54;5.85;;;3.10;;
39324;SDS011;25037;49.488;9.900;2024-01-30T15:22:22;6.22;;;2.60;;
39324;SDS011;25037;49.488;9.900;2024-01-30T15:24:50;5.68;;;3.08;;
39324;SDS011;25037;49.488;9.900;2024-01-30T15:27:18;5.32;;;2.13;;
39324;SDS011;25037;49.488;9.900;2024-01-30T15:29:45;5.20;;;2.78;;
39324;SDS011;25037;49.488;9.900;2024-01-30T15:32:49;6.13;;;2.97;;
39324;SDS011;25037;49.488;9.900;2024-01-30T15:35:18;6.25;;;2.78;;
39324;SDS011;25037;49.488;9.900;2024-01-30T15:37:47;7.88;;;2.78;;
39324;SDS011;25037;49.488;9.900;2024-01-30T15:40:28;6.53;;;3.10;;
39324;SDS011;25037;49.488;9.900;2024-01-30T15:42:55;8.45;;;3.67;;
39324;SDS011;25037;49.488;9.900;2024-01-30T15:45:22;10.25;;;3.80;;
39324;SDS011;25037;49.488;9.900;2024-01-30T15:47:52;7.45;;;3.15;;
39324;SDS011;25037;49.488;9.900;2024-01-30T15:50:19;7.45;;;3.20;;
39324;SDS011;25037;49.488;9.900;2024-01-30T15:52:46;6.88;;;3.38;;
39324;SDS011;25037;49.488;9.900;2024-01-30T15:55:14;7.07;;;3.65;;
39324;SDS011;25037;49.488;9.900;2024-01-30T15:57:42;5.85;;;2.85;;
39324;SDS011;25037;49.488;9.900;2024-01-30T16:00:11;6.75;;;3.40;;
39324;SDS011;25037;49.488;9.900;2024-01-30T16:02:41;7.00;;;3.40;;
39324;SDS011;25037;49.488;9.900;2024-01-30T16:05:08;6.65;;;3.42;;
39324;SDS011;25037;49.488;9.900;2024-01-30T16:07:36;6.85;;;3.40;;
39324;SDS011;25037;49.488;9.900;2024-01-30T16:10:04;7.05;;;3.38;;
39324;SDS011;25037;49.488;9.900;2024-01-30T16:12:33;7.80;;;3.92;;
39324;SDS011;25037;49.488;9.900;2024-01-30T16:15:00;9.48;;;3.67;;
39324;SDS011;25037;49.488;9.900;2024-01-30T16:17:29;5.32;;;3.20;;
39324;SDS011;25037;49.488;9.900;2024-01-30T16:20:01;8.55;;;3.78;;
39324;SDS011;25037;49.488;9.900;2024-01-30T16:22:29;7.88;;;3.63;;
39324;SDS011;25037;49.488;9.900;2024-01-30T16:24:59;7.55;;;3.70;;
39324;SDS011;25037;49.488;9.900;2024-01-30T16:27:30;7.13;;;3.13;;
39324;SDS011;25037;49.488;9.900;2024-01-30T16:29:58;7.82;;;4.15;;
39324;SDS011;25037;49.488;9.900;2024-01-30T16:32:25;8.30;;;3.40;;
39324;SDS011;25037;49.488;9.900;2024-01-30T16:37:20;9.10;;;3.58;;
39324;SDS011;25037;49.488;9.900;2024-01-30T16:39:47;8.27;;;3.20;;
39324;SDS011;25037;49.488;9.900;2024-01-30T16:42:14;7.60;;;4.10;;
39324;SDS011;25037;49.488;9.900;2024-01-30T16:44:42;8.85;;;4.20;;